Time;durP1;ratioP1;P1;durP2;ratioP2;P2;SDS_P1;SDS_P2;PMS_P1;PMS_P2;Temp;Humidity;BMP_temperature;BMP_pressure;BME280_temperature;BME280_humidity;BME280_pressure;Samples;Min_cycle;Max_cycle;Signal;HPM_P1;HPM_P2
2022/03/16 00:01:06;;;;;;;;;;;22.60;50.40;;;;;;5100413;28;984;-41
2022/03/16 00:03:34;;;;;;;;;;;22.60;50.30;;;;;;5099625;28;1052;-41
2022/03/16 00:06:01;;;;;;;;;;;22.70;50.20;;;;;;5101052;28;1978;-46
2022/03/16 00:08:29;;;;;;;;;;;22.60;50.10;;;;;;5101128;28;932;-42
2022/03/16 00:10:56;;;;;;;;;;;22.70;50.10;;;;;;5100652;28;982;-42
2022/03/16 00:13:23;;;;;;;;;;;22.60;50.20;;;;;;5101175;28;921;-43
2022/03/16 00:15:49;;;;;;;;;;;22.60;50.20;;;;;;5100053;28;1019;-43
2022/03/16 00:18:16;;;;;;;;;;;22.60;50.20;;;;;;5100808;28;992;-41
2022/03/16 00:20:44;;;;;;;;;;;22.60;50.20;;;;;;5100551;28;1209;-41
2022/03/16 00:23:11;;;;;;;;;;;22.60;50.20;;;;;;5101091;28;948;-43
2022/03/16 00:25:38;;;;;;;;;;;22.70;50.00;;;;;;5100791;28;1897;-41
2022/03/16 00:28:05;;;;;;;;;;;22.60;50.10;;;;;;5100293;28;1002;-42
2022/03/16 00:30:31;;;;;;;;;;;22.60;50.00;;;;;;5099297;28;928;-44
2022/03/16 00:32:58;;;;;;;;;;;22.60;50.30;;;;;;5099939;28;1012;-42
2022/03/16 00:35:25;;;;;;;;;;;22.50;50.00;;;;;;5100188;28;956;-43
2022/03/16 00:37:53;;;;;;;;;;;22.50;50.20;;;;;;5100686;28;999;-40
2022/03/16 00:40:20;;;;;;;;;;;22.50;50.30;;;;;;5100079;28;1042;-41
2022/03/16 00:42:46;;;;;;;;;;;22.50;50.30;;;;;;5100057;28;1027;-41
2022/03/16 00:45:13;;;;;;;;;;;22.50;50.30;;;;;;5100279;28;1909;-42
2022/03/16 00:47:40;;;;;;;;;;;22.50;50.50;;;;;;5099793;28;999;-42
2022/03/16 00:50:07;;;;;;;;;;;22.50;50.30;;;;;;5099942;28;1083;-42
2022/03/16 00:52:34;;;;;;;;;;;22.50;50.40;;;;;;5100415;28;984;-41
2022/03/16 00:55:02;;;;;;;;;;;22.50;50.50;;;;;;5100773;28;971;-41
2022/03/16 00:57:31;;;;;;;;;;;22.50;50.40;;;;;;5099611;28;1015;-42
2022/03/16 00:59:58;;;;;;;;;;;22.40;50.30;;;;;;5099988;28;940;-41
2022/03/16 01:02:25;;;;;;;;;;;22.40;50.30;;;;;;5099493;28;959;-42
2022/03/16 01:04:52;;;;;;;;;;;22.50;50.40;;;;;;5099837;28;1898;-42
2022/03/16 01:07:18;;;;;;;;;;;22.50;50.30;;;;;;5099137;28;1006;-42
2022/03/16 01:09:45;;;;;;;;;;;22.50;50.20;;;;;;5099427;28;951;-41
2022/03/16 01:12:13;;;;;;;;;;;22.50;50.10;;;;;;5100235;28;995;-42
2022/03/16 01:14:40;;;;;;;;;;;22.50;50.00;;;;;;5098892;28;1019;-41
2022/03/16 01:17:07;;;;;;;;;;;22.50;50.10;;;;;;5098861;28;1007;-42
2022/03/16 01:19:34;;;;;;;;;;;22.50;50.10;;;;;;5099459;28;1009;-42
2022/03/16 01:22:01;;;;;;;;;;;22.50;50.20;;;;;;5099356;28;1001;-42
2022/03/16 01:24:28;;;;;;;;;;;22.40;50.20;;;;;;5099480;28;1974;-42
2022/03/16 01:26:55;;;;;;;;;;;22.50;50.20;;;;;;5099397;28;943;-42
2022/03/16 01:29:24;;;;;;;;;;;22.50;50.10;;;;;;5099608;28;928;-41
2022/03/16 01:31:51;;;;;;;;;;;22.50;50.10;;;;;;5099621;28;1005;-42
2022/03/16 01:34:17;;;;;;;;;;;22.50;50.10;;;;;;5099348;28;1024;-42
2022/03/16 01:36:44;;;;;;;;;;;22.50;50.10;;;;;;5099250;28;1003;-42
2022/03/16 01:39:11;;;;;;;;;;;22.50;50.00;;;;;;5099404;28;991;-42
2022/03/16 01:41:38;;;;;;;;;;;22.40;50.20;;;;;;5098555;28;1036;-42
2022/03/16 01:44:05;;;;;;;;;;;22.40;50.40;;;;;;5098988;28;917;-42
2022/03/16 01:46:33;;;;;;;;;;;22.40;50.40;;;;;;5099512;28;1903;-42
2022/03/16 01:48:59;;;;;;;;;;;22.30;50.60;;;;;;5098721;28;1197;-42
2022/03/16 01:51:28;;;;;;;;;;;22.30;50.60;;;;;;5098677;28;1000;-43
2022/03/16 01:53:55;;;;;;;;;;;22.30;50.50;;;;;;5099092;28;1023;-42
2022/03/16 01:56:22;;;;;;;;;;;22.30;50.60;;;;;;5098741;28;1013;-42
2022/03/16 01:58:49;;;;;;;;;;;22.30;50.60;;;;;;5098340;28;1837;-42
2022/03/16 02:01:17;;;;;;;;;;;22.30;50.60;;;;;;5098407;28;981;-42
2022/03/16 02:03:45;;;;;;;;;;;22.30;50.70;;;;;;5099219;28;997;-42
2022/03/16 02:06:12;;;;;;;;;;;22.20;50.80;;;;;;5098638;28;1913;-42
2022/03/16 02:08:40;;;;;;;;;;;22.20;50.70;;;;;;5098987;28;1000;-42
2022/03/16 02:11:07;;;;;;;;;;;22.20;50.70;;;;;;5098806;28;1011;-42
2022/03/16 02:13:36;;;;;;;;;;;22.20;50.70;;;;;;5099137;28;1000;-43
2022/03/16 02:16:03;;;;;;;;;;;22.20;50.70;;;;;;5098764;28;929;-43
2022/03/16 02:18:30;;;;;;;;;;;22.20;50.70;;;;;;5098497;28;1064;-43
2022/03/16 02:21:00;;;;;;;;;;;22.20;50.80;;;;;;5098387;28;1770;-42
2022/03/16 02:23:28;;;;;;;;;;;22.30;50.50;;;;;;5098575;28;975;-42
2022/03/16 02:25:55;;;;;;;;;;;22.20;50.80;;;;;;5098442;28;1909;-42
2022/03/16 02:28:22;;;;;;;;;;;22.20;50.80;;;;;;5098778;28;1014;-42
2022/03/16 02:30:49;;;;;;;;;;;22.20;50.70;;;;;;5097926;28;1053;-41
2022/03/16 02:33:16;;;;;;;;;;;22.20;50.70;;;;;;5098086;28;988;-42
2022/03/16 02:35:43;;;;;;;;;;;22.20;50.80;;;;;;5097807;28;992;-42
2022/03/16 02:38:10;;;;;;;;;;;22.20;50.50;;;;;;5098106;28;960;-42
2022/03/16 02:40:38;;;;;;;;;;;22.20;50.80;;;;;;5097796;28;1007;-42
2022/03/16 02:43:05;;;;;;;;;;;22.20;50.70;;;;;;5097481;28;1176;-42
2022/03/16 02:45:32;;;;;;;;;;;22.30;50.40;;;;;;5097887;28;1984;-42
2022/03/16 02:47:59;;;;;;;;;;;22.30;50.50;;;;;;5098585;28;1114;-43
2022/03/16 02:50:26;;;;;;;;;;;22.30;50.30;;;;;;5098348;28;989;-42
2022/03/16 02:52:53;;;;;;;;;;;22.30;50.30;;;;;;5097956;28;1357;-42
2022/03/16 02:55:20;;;;;;;;;;;22.40;50.10;;;;;;5098559;28;995;-42
2022/03/16 02:57:48;;;;;;;;;;;22.40;50.10;;;;;;5097923;28;932;-42
2022/03/16 03:00:15;;;;;;;;;;;22.30;50.20;;;;;;5098340;28;925;-41
2022/03/16 03:02:42;;;;;;;;;;;22.30;50.30;;;;;;5098055;28;944;-42
2022/03/16 03:05:09;;;;;;;;;;;22.20;50.30;;;;;;5098102;28;1980;-41
2022/03/16 03:07:36;;;;;;;;;;;22.20;50.50;;;;;;5098185;28;1790;-43
2022/03/16 03:10:03;;;;;;;;;;;22.20;50.40;;;;;;5097897;28;968;-42
2022/03/16 03:12:33;;;;;;;;;;;22.20;50.50;;;;;;5098114;28;972;-41
2022/03/16 03:15:01;;;;;;;;;;;22.10;50.60;;;;;;5098552;28;1016;-42
2022/03/16 03:17:28;;;;;;;;;;;22.10;50.70;;;;;;5098070;28;992;-42
2022/03/16 03:19:55;;;;;;;;;;;22.10;50.70;;;;;;5097641;28;979;-42
2022/03/16 03:22:26;;;;;;;;;;;22.10;50.70;;;;;;5097435;28;980;-42
2022/03/16 03:24:52;;;;;;;;;;;22.10;50.70;;;;;;5098438;28;982;-43
2022/03/16 03:27:19;;;;;;;;;;;22.10;50.90;;;;;;5097793;28;1902;-42
2022/03/16 03:29:46;;;;;;;;;;;22.10;50.70;;;;;;5099924;28;1019;-41
2022/03/16 03:32:14;;;;;;;;;;;22.10;50.60;;;;;;5101094;28;1021;-42
2022/03/16 03:34:45;;;;;;;;;;;22.10;50.60;;;;;;5101999;28;988;-41
2022/03/16 03:37:12;;;;;;;;;;;22.10;50.50;;;;;;5101403;28;1013;-41
2022/03/16 03:39:39;;;;;;;;;;;22.10;50.50;;;;;;5102348;28;1004;-42
2022/03/16 03:42:06;;;;;;;;;;;22.20;50.40;;;;;;5100620;28;1026;-42
2022/03/16 03:44:36;;;;;;;;;;;22.10;50.40;;;;;;5101263;28;996;-42
2022/03/16 03:47:04;;;;;;;;;;;22.10;50.50;;;;;;5101710;28;1898;-42
2022/03/16 03:49:32;;;;;;;;;;;22.20;50.40;;;;;;5101957;28;1074;-43
2022/03/16 03:51:59;;;;;;;;;;;22.20;50.40;;;;;;5100905;28;960;-42
2022/03/16 03:54:26;;;;;;;;;;;22.10;50.50;;;;;;5101764;28;925;-42
2022/03/16 03:56:53;;;;;;;;;;;22.10;50.60;;;;;;5100996;28;1006;-42
2022/03/16 03:59:19;;;;;;;;;;;22.00;50.60;;;;;;5101102;28;999;-43
2022/03/16 04:01:46;;;;;;;;;;;22.00;50.50;;;;;;5100866;28;1011;-43
2022/03/16 04:04:13;;;;;;;;;;;22.00;50.70;;;;;;5100964;28;997;-42
2022/03/16 04:06:42;;;;;;;;;;;22.10;50.60;;;;;;5101098;28;1901;-42
2022/03/16 04:09:08;;;;;;;;;;;22.00;50.60;;;;;;5101404;28;1018;-43
2022/03/16 04:11:36;;;;;;;;;;;22.00;50.70;;;;;;5101039;28;1015;-42
2022/03/16 04:14:02;;;;;;;;;;;22.00;50.50;;;;;;5100739;28;1016;-42
2022/03/16 04:16:29;;;;;;;;;;;22.00;50.60;;;;;;5100353;28;995;-42
2022/03/16 04:18:56;;;;;;;;;;;22.00;50.60;;;;;;5100399;28;981;-43
2022/03/16 04:21:23;;;;;;;;;;;22.00;50.60;;;;;;5100720;28;1593;-42
2022/03/16 04:23:51;;;;;;;;;;;21.90;50.70;;;;;;5100616;28;967;-42
2022/03/16 04:26:18;;;;;;;;;;;22.00;50.60;;;;;;5100448;28;1906;-42
2022/03/16 04:28:46;;;;;;;;;;;21.90;50.50;;;;;;5100910;28;967;-42
2022/03/16 04:31:12;;;;;;;;;;;21.90;50.60;;;;;;5100224;28;975;-42
2022/03/16 04:33:39;;;;;;;;;;;21.90;50.70;;;;;;5099792;28;1022;-43
2022/03/16 04:36:06;;;;;;;;;;;21.90;50.80;;;;;;5100499;28;904;-44
2022/03/16 04:38:33;;;;;;;;;;;21.90;50.90;;;;;;5099583;28;1008;-42
2022/03/16 04:41:02;;;;;;;;;;;21.90;50.70;;;;;;5098698;28;924;-42
2022/03/16 04:43:29;;;;;;;;;;;22.00;50.60;;;;;;5099280;28;1137;-42
2022/03/16 04:45:56;;;;;;;;;;;22.00;50.30;;;;;;5099611;28;1893;-42
2022/03/16 04:48:22;;;;;;;;;;;22.00;50.30;;;;;;5100204;28;1052;-42
2022/03/16 04:50:49;;;;;;;;;;;22.00;50.60;;;;;;5099569;28;1032;-42
2022/03/16 04:53:16;;;;;;;;;;;21.90;50.60;;;;;;5100227;28;897;-42
2022/03/16 04:55:42;;;;;;;;;;;21.90;50.60;;;;;;5099570;28;936;-42
2022/03/16 04:58:12;;;;;;;;;;;22.10;50.20;;;;;;5099350;28;1014;-42
2022/03/16 05:00:39;;;;;;;;;;;22.00;50.50;;;;;;5099518;28;1023;-43
2022/03/16 05:03:06;;;;;;;;;;;22.00;50.30;;;;;;5099791;28;999;-42
2022/03/16 05:05:33;;;;;;;;;;;22.10;50.10;;;;;;5099818;28;986;-42
2022/03/16 05:07:59;;;;;;;;;;;21.90;50.50;;;;;;5098858;28;958;-42
2022/03/16 05:10:26;;;;;;;;;;;21.90;50.50;;;;;;5099009;28;928;-42
2022/03/16 05:12:53;;;;;;;;;;;21.90;50.70;;;;;;5098819;28;968;-42
2022/03/16 05:15:21;;;;;;;;;;;21.90;50.60;;;;;;5098278;28;968;-42
2022/03/16 05:17:48;;;;;;;;;;;21.90;50.60;;;;;;5097531;28;1030;-43
2022/03/16 05:20:15;;;;;;;;;;;21.80;50.70;;;;;;5097451;28;925;-42
2022/03/16 05:22:43;;;;;;;;;;;21.90;50.60;;;;;;5097960;28;1029;-41
2022/03/16 05:25:10;;;;;;;;;;;21.90;50.60;;;;;;5098576;28;1078;-42
2022/03/16 05:27:37;;;;;;;;;;;21.90;50.50;;;;;;5098382;28;1976;-41
2022/03/16 05:30:04;;;;;;;;;;;21.80;50.60;;;;;;5097688;28;1059;-43
2022/03/16 05:32:33;;;;;;;;;;;21.80;50.60;;;;;;5096797;28;1139;-42
2022/03/16 05:35:00;;;;;;;;;;;21.80;50.70;;;;;;5097377;28;1111;-42
2022/03/16 05:37:26;;;;;;;;;;;21.80;50.70;;;;;;5097726;28;1007;-41
2022/03/16 05:39:53;;;;;;;;;;;21.80;50.70;;;;;;5096773;28;1005;-42
2022/03/16 05:42:20;;;;;;;;;;;21.90;50.60;;;;;;5096503;28;889;-42
2022/03/16 05:44:47;;;;;;;;;;;22.00;50.10;;;;;;5095481;28;1013;-43
2022/03/16 05:47:14;;;;;;;;;;;21.90;50.30;;;;;;5095220;28;1979;-42
2022/03/16 05:49:42;;;;;;;;;;;21.90;50.50;;;;;;5095935;28;1247;-42
2022/03/16 05:52:09;;;;;;;;;;;21.80;50.30;;;;;;5095246;28;1072;-44
2022/03/16 05:54:35;;;;;;;;;;;22.00;50.10;;;;;;5096870;28;1151;-42
2022/03/16 05:57:02;;;;;;;;;;;21.90;50.20;;;;;;5095763;28;936;-42
2022/03/16 05:59:29;;;;;;;;;;;21.90;50.30;;;;;;5096168;28;1007;-42
2022/03/16 06:01:57;;;;;;;;;;;21.90;50.30;;;;;;5095666;28;945;-42
2022/03/16 06:04:23;;;;;;;;;;;21.90;50.30;;;;;;5096282;28;925;-42
2022/03/16 06:06:52;;;;;;;;;;;21.90;50.30;;;;;;5097285;28;1909;-44
2022/03/16 06:09:19;;;;;;;;;;;21.90;50.40;;;;;;5097409;28;996;-42
2022/03/16 06:11:45;;;;;;;;;;;21.90;50.40;;;;;;5097105;28;969;-42
2022/03/16 06:14:12;;;;;;;;;;;21.90;50.40;;;;;;5095359;28;1013;-43
2022/03/16 06:16:39;;;;;;;;;;;21.90;50.30;;;;;;5094934;28;980;-42
2022/03/16 06:19:06;;;;;;;;;;;21.90;50.30;;;;;;5093374;28;1054;-42
2022/03/16 06:21:33;;;;;;;;;;;21.90;50.30;;;;;;5094725;28;972;-42
2022/03/16 06:24:01;;;;;;;;;;;21.90;50.30;;;;;;5093661;28;987;-43
2022/03/16 06:26:28;;;;;;;;;;;21.90;50.20;;;;;;5095184;28;1905;-43
2022/03/16 06:28:55;;;;;;;;;;;22.00;50.30;;;;;;5094052;28;896;-41
2022/03/16 06:31:21;;;;;;;;;;;22.10;50.10;;;;;;5094384;28;996;-41
2022/03/16 06:33:48;;;;;;;;;;;22.10;49.90;;;;;;5093679;28;1062;-41
2022/03/16 06:36:15;;;;;;;;;;;22.10;49.80;;;;;;5094357;28;980;-42
2022/03/16 06:38:41;;;;;;;;;;;22.10;50.00;;;;;;5094542;28;1187;-41
2022/03/16 06:41:09;;;;;;;;;;;22.00;50.00;;;;;;5094779;28;1699;-42
2022/03/16 06:43:36;;;;;;;;;;;22.00;49.90;;;;;;5095034;28;1003;-42
2022/03/16 06:46:03;;;;;;;;;;;22.00;50.00;;;;;;5084400;28;1742;-42
2022/03/16 06:48:30;;;;;;;;;;;22.10;50.00;;;;;;5076371;28;1910;-46
2022/03/16 06:50:58;;;;;;;;;;;22.30;49.70;;;;;;5075717;28;1011;-46
2022/03/16 06:53:24;;;;;;;;;;;22.20;49.70;;;;;;5075959;28;1019;-47
2022/03/16 06:55:51;;;;;;;;;;;22.10;49.80;;;;;;5076107;28;929;-46
2022/03/16 06:58:19;;;;;;;;;;;22.20;49.90;;;;;;5076374;28;1001;-46
2022/03/16 07:00:46;;;;;;;;;;;22.20;49.80;;;;;;5075298;28;996;-46
2022/03/16 07:03:13;;;;;;;;;;;22.20;49.50;;;;;;5076012;28;1050;-46
2022/03/16 07:05:40;;;;;;;;;;;22.20;49.70;;;;;;5078051;28;956;-48
2022/03/16 07:08:08;;;;;;;;;;;22.30;50.00;;;;;;5079154;28;1980;-46
2022/03/16 07:10:35;;;;;;;;;;;22.30;49.70;;;;;;5078770;28;960;-48
2022/03/16 07:13:03;;;;;;;;;;;22.30;49.40;;;;;;5078663;28;1010;-49
2022/03/16 07:15:32;;;;;;;;;;;22.30;49.40;;;;;;5078751;28;937;-46
2022/03/16 07:18:01;;;;;;;;;;;22.30;49.40;;;;;;5078913;28;988;-47
2022/03/16 07:20:28;;;;;;;;;;;22.20;49.40;;;;;;5078671;28;1019;-47
2022/03/16 07:23:02;;;;;;;;;;;22.20;49.50;;;;;;5078645;28;960;-45
2022/03/16 07:25:29;;;;;;;;;;;22.40;50.00;;;;;;5078976;28;1024;-43
2022/03/16 07:27:56;;;;;;;;;;;22.40;49.70;;;;;;5078856;28;1905;-44
2022/03/16 07:30:23;;;;;;;;;;;22.30;49.80;;;;;;5077698;28;988;-45
2022/03/16 07:32:51;;;;;;;;;;;22.20;50.00;;;;;;5077004;28;911;-47
2022/03/16 07:35:18;;;;;;;;;;;22.20;49.80;;;;;;5077698;28;1025;-45
2022/03/16 07:37:46;;;;;;;;;;;22.20;49.90;;;;;;5077804;28;1020;-43
2022/03/16 07:40:13;;;;;;;;;;;22.20;49.80;;;;;;5078875;28;985;-44
2022/03/16 07:42:44;;;;;;;;;;;22.20;49.80;;;;;;5077999;28;987;-44
2022/03/16 07:45:11;;;;;;;;;;;22.20;49.80;;;;;;5078832;28;1004;-45
2022/03/16 07:47:38;;;;;;;;;;;22.20;49.90;;;;;;5077695;28;1870;-44
2022/03/16 07:50:06;;;;;;;;;;;22.20;49.80;;;;;;5077205;28;1180;-44
2022/03/16 07:52:33;;;;;;;;;;;22.20;49.90;;;;;;5078231;28;941;-44
2022/03/16 07:55:00;;;;;;;;;;;22.20;49.60;;;;;;5078092;28;1103;-45
2022/03/16 07:57:27;;;;;;;;;;;22.20;49.60;;;;;;5078093;28;992;-44
2022/03/16 07:59:54;;;;;;;;;;;22.20;49.80;;;;;;5078088;28;1006;-44
2022/03/16 08:02:21;;;;;;;;;;;22.20;49.80;;;;;;5078640;28;989;-44
2022/03/16 08:04:48;;;;;;;;;;;22.20;49.90;;;;;;5078652;28;1384;-44
2022/03/16 08:07:16;;;;;;;;;;;22.10;50.00;;;;;;5077066;28;1984;-44
2022/03/16 08:09:43;;;;;;;;;;;22.10;50.00;;;;;;5076833;28;1003;-44
2022/03/16 08:12:10;;;;;;;;;;;22.20;49.90;;;;;;5078307;28;1024;-44
2022/03/16 08:14:37;;;;;;;;;;;22.10;49.90;;;;;;5077067;28;998;-44
2022/03/16 08:17:04;;;;;;;;;;;22.10;49.90;;;;;;5078247;28;1299;-46
2022/03/16 08:19:31;;;;;;;;;;;22.10;49.90;;;;;;5079191;28;1082;-44
2022/03/16 08:21:58;;;;;;;;;;;22.10;49.70;;;;;;5077914;28;927;-45
2022/03/16 08:24:26;;;;;;;;;;;22.10;49.50;;;;;;5076830;28;983;-46
2022/03/16 08:26:53;;;;;;;;;;;22.10;49.70;;;;;;5074823;28;1894;-45
2022/03/16 08:29:20;;;;;;;;;;;22.10;49.70;;;;;;5076193;28;976;-45
2022/03/16 08:31:47;;;;;;;;;;;22.10;49.70;;;;;;5075559;28;1011;-44
2022/03/16 08:34:13;;;;;;;;;;;22.10;49.70;;;;;;5075534;28;1008;-45
2022/03/16 08:36:40;;;;;;;;;;;22.20;49.60;;;;;;5074483;28;1104;-44
2022/03/16 08:39:07;;;;;;;;;;;22.20;49.60;;;;;;5074435;28;1047;-45
2022/03/16 08:41:35;;;;;;;;;;;22.10;49.70;;;;;;5076235;28;1014;-43
2022/03/16 08:44:02;;;;;;;;;;;22.20;49.80;;;;;;5076212;28;992;-45
2022/03/16 08:46:30;;;;;;;;;;;22.10;49.80;;;;;;5076502;28;956;-45
2022/03/16 08:48:56;;;;;;;;;;;22.10;49.90;;;;;;5076060;28;1985;-46
2022/03/16 08:51:23;;;;;;;;;;;22.10;49.90;;;;;;5076266;28;2462;-43
2022/03/16 08:53:50;;;;;;;;;;;22.10;50.00;;;;;;5076263;28;1106;-43
2022/03/16 08:56:17;;;;;;;;;;;22.10;50.10;;;;;;5076777;28;1031;-44
2022/03/16 08:58:45;;;;;;;;;;;22.10;50.00;;;;;;5076943;28;980;-44
2022/03/16 09:01:12;;;;;;;;;;;22.10;50.10;;;;;;5075808;28;1067;-45
2022/03/16 09:03:39;;;;;;;;;;;22.10;50.10;;;;;;5075587;28;909;-45
2022/03/16 09:06:05;;;;;;;;;;;22.00;49.90;;;;;;5074039;28;1012;-44
2022/03/16 09:08:32;;;;;;;;;;;22.10;50.00;;;;;;5074757;28;1902;-43
2022/03/16 09:10:59;;;;;;;;;;;22.10;50.00;;;;;;5074403;28;1017;-44
2022/03/16 09:13:26;;;;;;;;;;;22.10;50.00;;;;;;5075456;28;979;-44
2022/03/16 09:15:54;;;;;;;;;;;22.00;50.00;;;;;;5074711;28;929;-44
2022/03/16 09:18:21;;;;;;;;;;;22.10;50.10;;;;;;5075563;28;1046;-44
2022/03/16 09:20:47;;;;;;;;;;;22.00;50.10;;;;;;5075407;28;925;-44
2022/03/16 09:23:14;;;;;;;;;;;22.00;50.30;;;;;;5075664;28;1051;-44
2022/03/16 09:25:41;;;;;;;;;;;22.10;50.20;;;;;;5075771;28;882;-44
2022/03/16 09:28:09;;;;;;;;;;;22.00;50.10;;;;;;5075268;28;1914;-44
2022/03/16 09:30:36;;;;;;;;;;;22.00;50.10;;;;;;5076398;28;1010;-42
2022/03/16 09:33:05;;;;;;;;;;;22.00;50.10;;;;;;5076595;28;1021;-44
2022/03/16 09:35:34;;;;;;;;;;;22.10;49.90;;;;;;5075696;28;865;-45
2022/03/16 09:38:00;;;;;;;;;;;22.10;49.90;;;;;;5074416;28;980;-44
2022/03/16 09:40:27;;;;;;;;;;;22.00;50.00;;;;;;5074775;28;985;-44
2022/03/16 09:42:55;;;;;;;;;;;22.00;50.10;;;;;;5074628;28;929;-44
2022/03/16 09:45:22;;;;;;;;;;;22.00;50.10;;;;;;5074132;28;1031;-44
2022/03/16 09:47:50;;;;;;;;;;;22.00;50.10;;;;;;5074872;28;1906;-44
2022/03/16 09:50:19;;;;;;;;;;;22.00;50.30;;;;;;5076218;28;1028;-44
2022/03/16 09:52:46;;;;;;;;;;;22.00;50.30;;;;;;5076675;28;1000;-44
2022/03/16 09:55:13;;;;;;;;;;;22.00;50.40;;;;;;5075764;28;1021;-44
2022/03/16 09:57:41;;;;;;;;;;;22.10;50.20;;;;;;5076255;28;998;-45
2022/03/16 10:00:09;;;;;;;;;;;22.10;50.10;;;;;;5075803;28;1810;-44
2022/03/16 10:02:36;;;;;;;;;;;22.00;50.30;;;;;;5074055;28;1018;-44
2022/03/16 10:05:06;;;;;;;;;;;22.00;50.40;;;;;;5074930;28;1045;-44
2022/03/16 10:07:36;;;;;;;;;;;22.00;50.50;;;;;;5073342;28;1914;-44
2022/03/16 10:15:31;;;;;;;;;;;22.10;50.50;;;;;;5073937;28;811;-44
2022/03/16 10:17:59;;;;;;;;;;;22.10;50.40;;;;;;5074660;28;971;-44
2022/03/16 10:20:27;;;;;;;;;;;22.10;50.40;;;;;;5073973;28;937;-44
2022/03/16 10:22:56;;;;;;;;;;;22.10;50.30;;;;;;5073512;28;995;-44
2022/03/16 10:25:23;;;;;;;;;;;22.10;50.30;;;;;;5073382;28;984;-45
2022/03/16 10:27:50;;;;;;;;;;;22.10;50.30;;;;;;5073354;28;1922;-44
2022/03/16 10:30:20;;;;;;;;;;;22.10;50.20;;;;;;5072293;28;1004;-42
2022/03/16 10:32:54;;;;;;;;;;;22.10;50.30;;;;;;5072818;28;958;-43
2022/03/16 10:35:23;;;;;;;;;;;22.10;50.20;;;;;;5074295;28;903;-44
2022/03/16 10:37:50;;;;;;;;;;;22.20;50.20;;;;;;5074594;28;1062;-43
2022/03/16 10:40:23;;;;;;;;;;;22.20;50.20;;;;;;5073841;28;996;-44
2022/03/16 10:48:20;;;;;;;;;;;22.10;50.40;;;;;;5074772;28;1909;-43
2022/03/16 10:50:47;;;;;;;;;;;22.10;50.40;;;;;;5074135;28;983;-47
2022/03/16 10:53:15;;;;;;;;;;;22.10;50.20;;;;;;5073444;28;920;-44
2022/03/16 10:55:44;;;;;;;;;;;22.20;50.20;;;;;;5074778;28;1007;-44
2022/03/16 10:58:12;;;;;;;;;;;22.20;50.30;;;;;;5073922;28;1011;-44
2022/03/16 11:00:39;;;;;;;;;;;22.10;50.30;;;;;;5074195;28;972;-47
2022/03/16 11:03:07;;;;;;;;;;;22.20;50.30;;;;;;5072796;28;893;-44
2022/03/16 11:05:36;;;;;;;;;;;22.20;50.20;;;;;;5073809;28;996;-46
2022/03/16 11:08:07;;;;;;;;;;;22.20;50.40;;;;;;5072077;28;1914;-44
2022/03/16 11:10:34;;;;;;;;;;;22.20;50.30;;;;;;5074471;28;936;-45
2022/03/16 11:15:50;;;;;;;;;;;22.20;50.30;;;;;;5072696;28;957;-44
2022/03/16 11:18:17;;;;;;;;;;;22.20;50.20;;;;;;5072891;28;931;-45
2022/03/16 11:20:45;;;;;;;;;;;22.10;50.30;;;;;;5071203;28;972;-45
2022/03/16 11:26:04;;;;;;;;;;;22.20;50.30;;;;;;5071534;28;706;-46
2022/03/16 11:28:35;;;;;;;;;;;22.10;50.20;;;;;;5072429;28;1921;-46
2022/03/16 11:31:02;;;;;;;;;;;22.20;50.20;;;;;;5071264;28;945;-46
2022/03/16 11:33:28;;;;;;;;;;;22.20;50.10;;;;;;5071508;28;1483;-45
2022/03/16 11:35:56;;;;;;;;;;;22.20;50.00;;;;;;5072457;28;972;-46
2022/03/16 11:38:23;;;;;;;;;;;22.20;51.20;;;;;;5072081;28;1264;-46
2022/03/16 11:40:51;;;;;;;;;;;22.10;50.00;;;;;;5071019;28;1011;-45
2022/03/16 11:43:19;;;;;;;;;;;22.20;50.00;;;;;;5071343;28;1018;-46
2022/03/16 11:45:50;;;;;;;;;;;22.30;49.90;;;;;;5070294;28;961;-45
2022/03/16 11:48:36;;;;;;;;;;;22.30;49.70;;;;;;5070808;28;1905;-44
2022/03/16 11:51:16;;;;;;;;;;;22.20;49.90;;;;;;5073724;28;1033;-43
2022/03/16 11:54:00;;;;;;;;;;;22.20;50.10;;;;;;5074861;28;1045;-45
2022/03/16 11:56:29;;;;;;;;;;;22.20;50.00;;;;;;5074423;28;1588;-45
2022/03/16 11:58:56;;;;;;;;;;;22.10;50.00;;;;;;5073508;28;893;-44
2022/03/16 12:01:28;;;;;;;;;;;22.10;50.10;;;;;;5071608;28;936;-44
2022/03/16 12:04:11;;;;;;;;;;;22.10;50.20;;;;;;5072391;28;963;-43
2022/03/16 12:06:52;;;;;;;;;;;22.10;50.20;;;;;;5072382;28;1063;-44
2022/03/16 12:09:20;;;;;;;;;;;22.10;50.20;;;;;;5073342;28;1909;-44
2022/03/16 12:14:57;;;;;;;;;;;22.10;50.30;;;;;;5074734;28;1118;-44
2022/03/16 12:17:25;;;;;;;;;;;22.10;50.20;;;;;;5072619;28;976;-44
2022/03/16 12:20:09;;;;;;;;;;;22.00;50.10;;;;;;5073835;28;1006;-44
2022/03/16 12:22:43;;;;;;;;;;;22.10;50.00;;;;;;5073606;28;845;-43
2022/03/16 12:25:29;;;;;;;;;;;22.10;50.10;;;;;;5073894;28;949;-45
2022/03/16 12:30:43;;;;;;;;;;;22.00;50.10;;;;;;5074488;28;649;-45
2022/03/16 12:33:12;;;;;;;;;;;22.10;50.10;;;;;;5074298;28;1012;-44
2022/03/16 12:35:39;;;;;;;;;;;22.10;50.10;;;;;;5074291;28;1038;-45
2022/03/16 12:38:09;;;;;;;;;;;22.10;50.00;;;;;;5073244;28;991;-44
2022/03/16 12:42:30;;;;;;;;;;;22.10;49.90;;;;;;5073865;28;967;-43
2022/03/16 12:43:22;;;;;;;;;;;22.20;49.80;;;;;;5073541;28;849;-45
2022/03/16 12:45:49;;;;;;;;;;;22.20;49.80;;;;;;5072708;28;976;-44
2022/03/16 12:48:20;;;;;;;;;;;22.30;49.70;;;;;;5073128;28;1971;-44
2022/03/16 12:50:47;;;;;;;;;;;22.20;49.70;;;;;;5073116;28;838;-44
2022/03/16 12:53:15;;;;;;;;;;;22.20;49.60;;;;;;5072327;28;965;-45
2022/03/16 12:55:54;;;;;;;;;;;22.10;49.70;;;;;;5072224;28;951;-44
2022/03/16 12:58:23;;;;;;;;;;;22.20;49.90;;;;;;5072676;28;982;-45
2022/03/16 13:00:57;;;;;;;;;;;22.10;49.80;;;;;;5072221;28;983;-44
2022/03/16 13:03:25;;;;;;;;;;;22.20;49.80;;;;;;5071656;28;904;-45
2022/03/16 13:05:53;;;;;;;;;;;22.20;49.90;;;;;;5071939;28;1003;-44
2022/03/16 13:08:20;;;;;;;;;;;22.20;49.90;;;;;;5071726;28;1909;-44
2022/03/16 13:13:30;;;;;;;;;;;22.20;49.80;;;;;;5072217;28;992;-43
2022/03/16 13:16:00;;;;;;;;;;;22.20;49.80;;;;;;5072478;28;896;-46
2022/03/16 13:18:32;;;;;;;;;;;22.20;49.80;;;;;;5071512;28;980;-44
2022/03/16 13:20:59;;;;;;;;;;;22.20;49.80;;;;;;5072034;28;943;-46
2022/03/16 13:23:30;;;;;;;;;;;22.20;49.70;;;;;;5070563;28;1001;-45
2022/03/16 13:26:06;;;;;;;;;;;22.20;49.70;;;;;;5072423;28;1003;-44
2022/03/16 13:28:32;;;;;;;;;;;22.20;49.80;;;;;;5071528;28;1921;-45
2022/03/16 13:31:00;;;;;;;;;;;22.20;49.80;;;;;;5072130;28;869;-45
2022/03/16 13:33:27;;;;;;;;;;;22.20;49.70;;;;;;5072002;28;1468;-44
2022/03/16 13:36:09;;;;;;;;;;;22.20;49.60;;;;;;5072424;28;1019;-44
2022/03/16 13:38:37;;;;;;;;;;;22.20;49.60;;;;;;5073774;28;1011;-44
2022/03/16 13:41:10;;;;;;;;;;;22.20;49.80;;;;;;5073907;28;944;-46
2022/03/16 13:43:38;;;;;;;;;;;22.20;49.80;;;;;;5072007;28;1537;-44
2022/03/16 13:46:08;;;;;;;;;;;22.20;49.80;;;;;;5071194;28;980;-44
2022/03/16 13:48:38;;;;;;;;;;;22.20;49.80;;;;;;5073605;28;1914;-45
2022/03/16 13:51:06;;;;;;;;;;;22.20;49.70;;;;;;5073265;28;1047;-43
2022/03/16 13:53:41;;;;;;;;;;;22.20;49.70;;;;;;5070171;28;1026;-46
2022/03/16 13:56:12;;;;;;;;;;;22.20;49.90;;;;;;5070556;28;1043;-45
2022/03/16 13:58:40;;;;;;;;;;;22.20;49.80;;;;;;5072643;28;992;-43
2022/03/16 14:01:07;;;;;;;;;;;22.20;49.80;;;;;;5072906;28;1463;-44
2022/03/16 14:03:33;;;;;;;;;;;22.20;49.80;;;;;;5073614;28;933;-44
2022/03/16 14:06:11;;;;;;;;;;;22.20;49.80;;;;;;5069917;28;1023;-46
2022/03/16 14:08:37;;;;;;;;;;;22.20;49.90;;;;;;5072075;28;1991;-43
2022/03/16 14:11:05;;;;;;;;;;;22.10;49.70;;;;;;5073187;28;948;-44
2022/03/16 14:13:38;;;;;;;;;;;22.20;49.90;;;;;;5073309;28;919;-44
2022/03/16 14:16:12;;;;;;;;;;;22.20;49.80;;;;;;5069611;28;932;-44
2022/03/16 14:18:39;;;;;;;;;;;22.20;49.80;;;;;;5073796;28;1030;-44
2022/03/16 14:21:08;;;;;;;;;;;22.20;50.00;;;;;;5074242;28;1005;-44
2022/03/16 14:23:35;;;;;;;;;;;22.20;51.00;;;;;;5071810;28;1007;-44
2022/03/16 14:26:02;;;;;;;;;;;22.20;49.90;;;;;;5074733;28;1092;-43
2022/03/16 14:28:30;;;;;;;;;;;22.20;49.80;;;;;;5074917;28;1918;-45
2022/03/16 14:30:57;;;;;;;;;;;22.20;49.80;;;;;;5073652;28;1482;-45
2022/03/16 14:33:25;;;;;;;;;;;22.20;49.80;;;;;;5073249;28;940;-45
2022/03/16 14:35:55;;;;;;;;;;;22.20;49.70;;;;;;5074959;28;1032;-45
2022/03/16 14:38:23;;;;;;;;;;;22.30;49.70;;;;;;5073451;28;1038;-45
2022/03/16 14:40:55;;;;;;;;;;;22.20;49.80;;;;;;5073875;28;919;-45
2022/03/16 14:43:23;;;;;;;;;;;22.20;49.80;;;;;;5073601;28;888;-45
2022/03/16 14:45:51;;;;;;;;;;;22.20;49.70;;;;;;5073596;28;986;-45
2022/03/16 14:48:18;;;;;;;;;;;22.20;49.80;;;;;;5073215;28;1361;-44
2022/03/16 14:50:45;;;;;;;;;;;22.20;49.80;;;;;;5072983;28;1992;-44
2022/03/16 14:53:12;;;;;;;;;;;22.20;49.80;;;;;;5072906;28;963;-44
2022/03/16 14:55:39;;;;;;;;;;;22.20;49.90;;;;;;5073514;28;963;-44
2022/03/16 14:58:06;;;;;;;;;;;22.20;49.90;;;;;;5072156;28;940;-44
2022/03/16 15:00:33;;;;;;;;;;;22.20;49.80;;;;;;5073660;28;1026;-44
2022/03/16 15:03:01;;;;;;;;;;;22.30;49.90;;;;;;5074345;28;936;-45
2022/03/16 15:05:28;;;;;;;;;;;22.30;49.90;;;;;;5072651;28;1028;-44